Terminal Aerodrome Forecast
Issued by NWS Bismarck, ND

Home | Current Version | Previous Version | Graphics & Text | Print | Product List | Glossary On
Versions: 1 2 3 4 5 6 7 8 9 10 11 12 13 14 15 16 17 18 19
236
FTUS43 KBIS 052320
TAFBIS
TAF
KBIS 052320Z 0600/0624 24006KT P6SM FEW200
     FM060800 21005KT P6SM SCT250 WS020/28040KT
     FM061700 25009KT P6SM BKN200 WS020/28045KT
     FM062000 27016G27KT P6SM BKN150=

USA.gov is the U.S. government's official web portal to all federal, state and local government web resources and services.